sensor_id;sensor_type;location;lat;lon;timestamp;temperature;humidity
68217;DHT22;55037;52.354;4.992;2023-07-02T00:00:22;19.10;62.40
68217;DHT22;55037;52.354;4.992;2023-07-02T00:02:49;19.00;62.50
68217;DHT22;55037;52.354;4.992;2023-07-02T00:05:17;19.00;62.30
68217;DHT22;55037;52.354;4.992;2023-07-02T00:07:45;19.00;62.00
68217;DHT22;55037;52.354;4.992;2023-07-02T00:10:13;19.00;61.50
68217;DHT22;55037;52.354;4.992;2023-07-02T00:12:40;19.00;61.10
68217;DHT22;55037;52.354;4.992;2023-07-02T00:15:08;18.90;60.80
68217;DHT22;55037;52.354;4.992;2023-07-02T00:17:36;18.90;60.10
68217;DHT22;55037;52.354;4.992;2023-07-02T00:20:08;19.00;60.10
68217;DHT22;55037;52.354;4.992;2023-07-02T00:22:42;18.90;60.00
68217;DHT22;55037;52.354;4.992;2023-07-02T00:25:13;18.90;59.80
68217;DHT22;55037;52.354;4.992;2023-07-02T00:27:41;18.90;59.80
68217;DHT22;55037;52.354;4.992;2023-07-02T00:30:10;19.00;59.70
68217;DHT22;55037;52.354;4.992;2023-07-02T00:32:38;18.90;59.40
68217;DHT22;55037;52.354;4.992;2023-07-02T00:35:06;18.90;59.50
68217;DHT22;55037;52.354;4.992;2023-07-02T00:37:35;18.90;59.40
68217;DHT22;55037;52.354;4.992;2023-07-02T00:40:03;18.80;59.10
68217;DHT22;55037;52.354;4.992;2023-07-02T00:42:30;18.80;59.00
68217;DHT22;55037;52.354;4.992;2023-07-02T00:44:58;18.80;58.90
68217;DHT22;55037;52.354;4.992;2023-07-02T00:47:34;18.80;59.00
68217;DHT22;55037;52.354;4.992;2023-07-02T00:50:02;18.70;59.30
68217;DHT22;55037;52.354;4.992;2023-07-02T00:52:30;18.70;59.50
68217;DHT22;55037;52.354;4.992;2023-07-02T00:54:58;18.60;59.60
68217;DHT22;55037;52.354;4.992;2023-07-02T00:57:25;18.60;59.70
68217;DHT22;55037;52.354;4.992;2023-07-02T00:59:58;18.60;60.00
68217;DHT22;55037;52.354;4.992;2023-07-02T01:02:27;18.50;60.00
68217;DHT22;55037;52.354;4.992;2023-07-02T01:04:57;18.50;60.20
68217;DHT22;55037;52.354;4.992;2023-07-02T01:07:28;18.50;60.30
68217;DHT22;55037;52.354;4.992;2023-07-02T01:09:56;18.50;60.60
68217;DHT22;55037;52.354;4.992;2023-07-02T01:12:23;18.40;60.80
68217;DHT22;55037;52.354;4.992;2023-07-02T01:14:56;18.40;61.00
68217;DHT22;55037;52.354;4.992;2023-07-02T01:17:27;18.40;61.10
68217;DHT22;55037;52.354;4.992;2023-07-02T01:19:57;18.40;61.20
68217;DHT22;55037;52.354;4.992;2023-07-02T01:22:28;18.40;61.10
68217;DHT22;55037;52.354;4.992;2023-07-02T01:24:56;18.40;61.30
68217;DHT22;55037;52.354;4.992;2023-07-02T01:27:28;18.40;61.50
68217;DHT22;55037;52.354;4.992;2023-07-02T01:29:56;18.30;61.60
68217;DHT22;55037;52.354;4.992;2023-07-02T01:32:24;18.30;61.80
68217;DHT22;55037;52.354;4.992;2023-07-02T01:34:52;18.30;61.90
68217;DHT22;55037;52.354;4.992;2023-07-02T01:37:21;18.30;62.10
68217;DHT22;55037;52.354;4.992;2023-07-02T01:39:49;18.20;62.10
68217;DHT22;55037;52.354;4.992;2023-07-02T01:42:18;18.20;62.20
68217;DHT22;55037;52.354;4.992;2023-07-02T01:44:48;18.20;62.20
68217;DHT22;55037;52.354;4.992;2023-07-02T01:47:18;18.10;62.10
68217;DHT22;55037;52.354;4.992;2023-07-02T01:49:47;18.20;62.20
68217;DHT22;55037;52.354;4.992;2023-07-02T01:52:16;18.10;62.20
68217;DHT22;55037;52.354;4.992;2023-07-02T01:54:46;18.10;62.10
68217;DHT22;55037;52.354;4.992;2023-07-02T01:57:14;18.10;62.20
68217;DHT22;55037;52.354;4.992;2023-07-02T01:59:42;18.00;62.10
68217;DHT22;55037;52.354;4.992;2023-07-02T02:02:10;18.10;62.20
68217;DHT22;55037;52.354;4.992;2023-07-02T02:04:38;18.00;62.00
68217;DHT22;55037;52.354;4.992;2023-07-02T02:07:06;18.00;62.00
68217;DHT22;55037;52.354;4.992;2023-07-02T02:09:33;18.10;62.00
68217;DHT22;55037;52.354;4.992;2023-07-02T02:12:01;18.00;62.00
68217;DHT22;55037;52.354;4.992;2023-07-02T02:14:29;18.00;62.00
68217;DHT22;55037;52.354;4.992;2023-07-02T02:16:58;17.90;62.10
68217;DHT22;55037;52.354;4.992;2023-07-02T02:19:25;17.90;62.20
68217;DHT22;55037;52.354;4.992;2023-07-02T02:21:53;17.90;62.20
68217;DHT22;55037;52.354;4.992;2023-07-02T02:24:21;17.90;62.20
68217;DHT22;55037;52.354;4.992;2023-07-02T02:26:49;17.80;62.20
68217;DHT22;55037;52.354;4.992;2023-07-02T02:29:16;17.80;62.30
68217;DHT22;55037;52.354;4.992;2023-07-02T02:31:45;17.80;62.30
68217;DHT22;55037;52.354;4.992;2023-07-02T02:34:12;17.80;62.50
68217;DHT22;55037;52.354;4.992;2023-07-02T02:36:41;17.70;62.60
68217;DHT22;55037;52.354;4.992;2023-07-02T02:39:08;17.80;62.70
68217;DHT22;55037;52.354;4.992;2023-07-02T02:41:36;17.80;62.70
68217;DHT22;55037;52.354;4.992;2023-07-02T02:44:05;17.70;62.60
68217;DHT22;55037;52.354;4.992;2023-07-02T02:46:33;17.70;62.70
68217;DHT22;55037;52.354;4.992;2023-07-02T02:49:01;17.60;62.80
68217;DHT22;55037;52.354;4.992;2023-07-02T02:51:29;17.60;64.00
68217;DHT22;55037;52.354;4.992;2023-07-02T02:53:56;17.60;63.20
68217;DHT22;55037;52.354;4.992;2023-07-02T02:56:24;17.60;63.20
68217;DHT22;55037;52.354;4.992;2023-07-02T02:58:51;17.60;63.30
68217;DHT22;55037;52.354;4.992;2023-07-02T03:01:19;17.60;63.50
68217;DHT22;55037;52.354;4.992;2023-07-02T03:03:46;17.50;63.50
68217;DHT22;55037;52.354;4.992;2023-07-02T03:06:14;17.50;63.60
68217;DHT22;55037;52.354;4.992;2023-07-02T03:08:43;17.50;63.70
68217;DHT22;55037;52.354;4.992;2023-07-02T03:11:11;17.50;63.70
68217;DHT22;55037;52.354;4.992;2023-07-02T03:13:38;17.50;63.70
68217;DHT22;55037;52.354;4.992;2023-07-02T03:16:06;17.40;63.70
68217;DHT22;55037;52.354;4.992;2023-07-02T03:18:35;17.50;63.90
68217;DHT22;55037;52.354;4.992;2023-07-02T03:21:02;17.50;64.00
68217;DHT22;55037;52.354;4.992;2023-07-02T03:23:30;17.40;64.00
68217;DHT22;55037;52.354;4.992;2023-07-02T03:25:58;17.50;64.00
68217;DHT22;55037;52.354;4.992;2023-07-02T03:28:25;17.40;64.00
68217;DHT22;55037;52.354;4.992;2023-07-02T03:30:53;17.50;64.00
68217;DHT22;55037;52.354;4.992;2023-07-02T03:33:20;17.50;63.80
68217;DHT22;55037;52.354;4.992;2023-07-02T03:35:48;17.50;63.80
68217;DHT22;55037;52.354;4.992;2023-07-02T03:38:18;17.50;63.70
68217;DHT22;55037;52.354;4.992;2023-07-02T03:40:46;17.50;63.70
68217;DHT22;55037;52.354;4.992;2023-07-02T03:43:15;17.50;63.60
68217;DHT22;55037;52.354;4.992;2023-07-02T03:45:45;17.50;63.60
68217;DHT22;55037;52.354;4.992;2023-07-02T03:48:12;17.50;63.50
68217;DHT22;55037;52.354;4.992;2023-07-02T03:50:40;17.60;62.70
68217;DHT22;55037;52.354;4.992;2023-07-02T03:53:08;17.60;63.60
68217;DHT22;55037;52.354;4.992;2023-07-02T03:55:36;17.60;63.50
68217;DHT22;55037;52.354;4.992;2023-07-02T03:58:03;17.60;63.50
68217;DHT22;55037;52.354;4.992;2023-07-02T04:00:30;17.60;62.80
68217;DHT22;55037;52.354;4.992;2023-07-02T04:02:58;17.60;63.70
68217;DHT22;55037;52.354;4.992;2023-07-02T04:05:26;17.60;63.70
68217;DHT22;55037;52.354;4.992;2023-07-02T04:07:54;17.60;65.00
68217;DHT22;55037;52.354;4.992;2023-07-02T04:10:21;17.70;63.20
68217;DHT22;55037;52.354;4.992;2023-07-02T04:12:49;17.60;63.80
68217;DHT22;55037;52.354;4.992;2023-07-02T04:15:16;17.60;64.00
68217;DHT22;55037;52.354;4.992;2023-07-02T04:17:44;17.70;64.20
68217;DHT22;55037;52.354;4.992;2023-07-02T04:20:12;17.70;64.10
68217;DHT22;55037;52.354;4.992;2023-07-02T04:22:39;17.70;64.20
68217;DHT22;55037;52.354;4.992;2023-07-02T04:25:07;17.70;64.10
68217;DHT22;55037;52.354;4.992;2023-07-02T04:27:55;17.70;64.10
68217;DHT22;55037;52.354;4.992;2023-07-02T04:30:25;17.70;63.50
68217;DHT22;55037;52.354;4.992;2023-07-02T04:32:53;17.70;64.20
68217;DHT22;55037;52.354;4.992;2023-07-02T04:35:21;17.80;64.40
68217;DHT22;55037;52.354;4.992;2023-07-02T04:37:48;17.80;64.30
68217;DHT22;55037;52.354;4.992;2023-07-02T04:40:17;17.80;64.30
68217;DHT22;55037;52.354;4.992;2023-07-02T04:42:45;17.90;64.30
68217;DHT22;55037;52.354;4.992;2023-07-02T04:45:15;17.80;64.20
68217;DHT22;55037;52.354;4.992;2023-07-02T04:47:45;17.90;65.40
68217;DHT22;55037;52.354;4.992;2023-07-02T04:50:13;17.90;64.30
68217;DHT22;55037;52.354;4.992;2023-07-02T04:52:40;17.90;64.20
68217;DHT22;55037;52.354;4.992;2023-07-02T04:55:09;17.90;64.30
68217;DHT22;55037;52.354;4.992;2023-07-02T04:57:37;17.90;64.40
68217;DHT22;55037;52.354;4.992;2023-07-02T05:00:05;18.00;64.30
68217;DHT22;55037;52.354;4.992;2023-07-02T05:02:36;18.00;64.10
68217;DHT22;55037;52.354;4.992;2023-07-02T05:05:04;18.00;64.10
68217;DHT22;55037;52.354;4.992;2023-07-02T05:07:31;18.10;64.20
68217;DHT22;55037;52.354;4.992;2023-07-02T05:09:59;18.10;64.20
68217;DHT22;55037;52.354;4.992;2023-07-02T05:12:26;18.10;64.20
68217;DHT22;55037;52.354;4.992;2023-07-02T05:14:55;18.20;64.00
68217;DHT22;55037;52.354;4.992;2023-07-02T05:17:22;18.20;63.90
68217;DHT22;55037;52.354;4.992;2023-07-02T05:19:50;18.20;63.90
68217;DHT22;55037;52.354;4.992;2023-07-02T05:22:18;18.30;63.80
68217;DHT22;55037;52.354;4.992;2023-07-02T05:24:46;18.40;63.70
68217;DHT22;55037;52.354;4.992;2023-07-02T05:27:14;18.40;63.20
68217;DHT22;55037;52.354;4.992;2023-07-02T05:29:42;18.30;63.40
68217;DHT22;55037;52.354;4.992;2023-07-02T05:32:10;18.40;63.40
68217;DHT22;55037;52.354;4.992;2023-07-02T05:34:37;18.40;63.20
68217;DHT22;55037;52.354;4.992;2023-07-02T05:37:08;18.40;63.30
68217;DHT22;55037;52.354;4.992;2023-07-02T05:39:35;18.50;63.10
68217;DHT22;55037;52.354;4.992;2023-07-02T05:42:04;18.40;62.90
68217;DHT22;55037;52.354;4.992;2023-07-02T05:44:31;18.40;63.00
68217;DHT22;55037;52.354;4.992;2023-07-02T05:46:59;18.50;63.20
68217;DHT22;55037;52.354;4.992;2023-07-02T05:49:27;18.60;63.10
68217;DHT22;55037;52.354;4.992;2023-07-02T05:51:54;18.70;62.90
68217;DHT22;55037;52.354;4.992;2023-07-02T05:54:22;18.70;62.50
68217;DHT22;55037;52.354;4.992;2023-07-02T05:56:50;18.70;62.50
68217;DHT22;55037;52.354;4.992;2023-07-02T05:59:17;18.70;62.70
68217;DHT22;55037;52.354;4.992;2023-07-02T06:01:46;18.70;62.50
68217;DHT22;55037;52.354;4.992;2023-07-02T06:04:14;18.80;62.30
68217;DHT22;55037;52.354;4.992;2023-07-02T06:06:42;18.90;61.90
68217;DHT22;55037;52.354;4.992;2023-07-02T06:09:10;18.90;61.50
68217;DHT22;55037;52.354;4.992;2023-07-02T06:11:37;19.00;61.50
68217;DHT22;55037;52.354;4.992;2023-07-02T06:14:06;19.00;61.50
68217;DHT22;55037;52.354;4.992;2023-07-02T06:16:33;19.10;62.70
68217;DHT22;55037;52.354;4.992;2023-07-02T06:19:01;19.20;60.70
68217;DHT22;55037;52.354;4.992;2023-07-02T06:21:29;19.20;60.60
68217;DHT22;55037;52.354;4.992;2023-07-02T06:23:57;19.20;60.60
68217;DHT22;55037;52.354;4.992;2023-07-02T06:26:26;19.20;60.10
68217;DHT22;55037;52.354;4.992;2023-07-02T06:28:54;19.20;60.10
68217;DHT22;55037;52.354;4.992;2023-07-02T06:31:21;19.20;60.30
68217;DHT22;55037;52.354;4.992;2023-07-02T06:33:51;19.20;60.40
68217;DHT22;55037;52.354;4.992;2023-07-02T06:36:19;19.30;60.80
68217;DHT22;55037;52.354;4.992;2023-07-02T06:38:47;19.50;61.80
68217;DHT22;55037;52.354;4.992;2023-07-02T06:41:15;19.60;58.80
68217;DHT22;55037;52.354;4.992;2023-07-02T06:43:42;19.60;58.70
68217;DHT22;55037;52.354;4.992;2023-07-02T06:46:12;19.60;58.70
68217;DHT22;55037;52.354;4.992;2023-07-02T06:48:41;19.60;58.80
68217;DHT22;55037;52.354;4.992;2023-07-02T06:51:08;19.70;59.10
68217;DHT22;55037;52.354;4.992;2023-07-02T06:53:36;19.90;58.90
68217;DHT22;55037;52.354;4.992;2023-07-02T06:56:04;20.00;57.70
68217;DHT22;55037;52.354;4.992;2023-07-02T06:58:32;20.00;56.60
68217;DHT22;55037;52.354;4.992;2023-07-02T07:01:00;19.80;56.10
68217;DHT22;55037;52.354;4.992;2023-07-02T07:03:28;19.60;56.70
68217;DHT22;55037;52.354;4.992;2023-07-02T07:05:56;19.60;58.00
68217;DHT22;55037;52.354;4.992;2023-07-02T07:08:24;19.80;57.70
68217;DHT22;55037;52.354;4.992;2023-07-02T07:10:51;20.00;56.10
68217;DHT22;55037;52.354;4.992;2023-07-02T07:13:19;20.10;55.60
68217;DHT22;55037;52.354;4.992;2023-07-02T07:15:47;20.00;56.00
68217;DHT22;55037;52.354;4.992;2023-07-02T07:18:14;20.00;55.30
68217;DHT22;55037;52.354;4.992;2023-07-02T07:20:42;20.00;54.80
68217;DHT22;55037;52.354;4.992;2023-07-02T07:23:10;20.10;54.70
68217;DHT22;55037;52.354;4.992;2023-07-02T07:25:38;20.20;54.20
68217;DHT22;55037;52.354;4.992;2023-07-02T07:28:05;20.30;54.20
68217;DHT22;55037;52.354;4.992;2023-07-02T07:30:33;20.40;54.30
68217;DHT22;55037;52.354;4.992;2023-07-02T07:33:01;20.30;53.70
68217;DHT22;55037;52.354;4.992;2023-07-02T07:35:28;20.30;54.30
68217;DHT22;55037;52.354;4.992;2023-07-02T07:37:56;20.40;55.00
68217;DHT22;55037;52.354;4.992;2023-07-02T07:40:24;20.50;53.40
68217;DHT22;55037;52.354;4.992;2023-07-02T07:42:51;20.40;53.40
68217;DHT22;55037;52.354;4.992;2023-07-02T07:45:19;20.30;53.70
68217;DHT22;55037;52.354;4.992;2023-07-02T07:47:47;20.20;52.00
68217;DHT22;55037;52.354;4.992;2023-07-02T07:50:14;20.10;52.60
68217;DHT22;55037;52.354;4.992;2023-07-02T07:52:42;20.30;53.70
68217;DHT22;55037;52.354;4.992;2023-07-02T07:55:10;20.50;52.60
68217;DHT22;55037;52.354;4.992;2023-07-02T07:57:38;20.60;52.00
68217;DHT22;55037;52.354;4.992;2023-07-02T08:00:06;20.70;52.10
68217;DHT22;55037;52.354;4.992;2023-07-02T08:02:46;20.70;51.50
68217;DHT22;55037;52.354;4.992;2023-07-02T08:05:17;20.70;51.30
68217;DHT22;55037;52.354;4.992;2023-07-02T08:07:44;20.80;51.20
68217;DHT22;55037;52.354;4.992;2023-07-02T08:10:12;21.00;51.00
68217;DHT22;55037;52.354;4.992;2023-07-02T08:12:39;21.10;51.00
68217;DHT22;55037;52.354;4.992;2023-07-02T08:15:07;21.20;49.70
68217;DHT22;55037;52.354;4.992;2023-07-02T08:17:35;21.10;48.60
68217;DHT22;55037;52.354;4.992;2023-07-02T08:20:03;21.00;50.10
68217;DHT22;55037;52.354;4.992;2023-07-02T08:22:31;21.20;50.20
68217;DHT22;55037;52.354;4.992;2023-07-02T08:24:59;21.50;49.10
68217;DHT22;55037;52.354;4.992;2023-07-02T08:27:27;21.30;48.30
68217;DHT22;55037;52.354;4.992;2023-07-02T08:29:54;21.10;49.00
68217;DHT22;55037;52.354;4.992;2023-07-02T08:32:22;21.10;49.80
68217;DHT22;55037;52.354;4.992;2023-07-02T08:34:49;21.20;49.80
68217;DHT22;55037;52.354;4.992;2023-07-02T08:37:20;21.40;48.50
68217;DHT22;55037;52.354;4.992;2023-07-02T08:39:51;21.60;49.40
68217;DHT22;55037;52.354;4.992;2023-07-02T08:42:19;21.90;48.30
68217;DHT22;55037;52.354;4.992;2023-07-02T08:44:47;22.00;48.50
68217;DHT22;55037;52.354;4.992;2023-07-02T08:47:15;22.10;48.60
68217;DHT22;55037;52.354;4.992;2023-07-02T08:49:43;22.10;46.50
68217;DHT22;55037;52.354;4.992;2023-07-02T08:52:12;21.60;46.20
68217;DHT22;55037;52.354;4.992;2023-07-02T08:54:39;21.30;47.70
68217;DHT22;55037;52.354;4.992;2023-07-02T08:57:09;21.20;48.20
68217;DHT22;55037;52.354;4.992;2023-07-02T08:59:36;21.40;48.40
68217;DHT22;55037;52.354;4.992;2023-07-02T09:02:04;21.50;47.90
68217;DHT22;55037;52.354;4.992;2023-07-02T09:04:32;21.60;47.70
68217;DHT22;55037;52.354;4.992;2023-07-02T09:09:32;22.10;47.50
68217;DHT22;55037;52.354;4.992;2023-07-02T09:12:00;22.40;46.40
68217;DHT22;55037;52.354;4.992;2023-07-02T09:14:29;22.60;45.10
68217;DHT22;55037;52.354;4.992;2023-07-02T09:19:31;22.60;44.50
68217;DHT22;55037;52.354;4.992;2023-07-02T09:21:59;22.50;44.30
68217;DHT22;55037;52.354;4.992;2023-07-02T09:24:31;22.30;44.70
68217;DHT22;55037;52.354;4.992;2023-07-02T09:27:01;22.30;45.40
68217;DHT22;55037;52.354;4.992;2023-07-02T09:29:30;22.50;45.10
68217;DHT22;55037;52.354;4.992;2023-07-02T09:32:00;22.60;44.60
68217;DHT22;55037;52.354;4.992;2023-07-02T09:34:32;24.40;42.30
68217;DHT22;55037;52.354;4.992;2023-07-02T09:37:02;26.40;36.30
68217;DHT22;55037;52.354;4.992;2023-07-02T09:39:33;27.40;32.60
68217;DHT22;55037;52.354;4.992;2023-07-02T09:42:05;27.40;32.20
68217;DHT22;55037;52.354;4.992;2023-07-02T09:44:34;26.20;32.50
68217;DHT22;55037;52.354;4.992;2023-07-02T09:47:07;24.80;35.30
68217;DHT22;55037;52.354;4.992;2023-07-02T09:49:36;24.10;36.80
68217;DHT22;55037;52.354;4.992;2023-07-02T09:52:05;24.00;38.00
68217;DHT22;55037;52.354;4.992;2023-07-02T09:54:33;24.10;37.20
68217;DHT22;55037;52.354;4.992;2023-07-02T09:57:02;23.80;37.20
68217;DHT22;55037;52.354;4.992;2023-07-02T09:59:30;23.70;37.90
68217;DHT22;55037;52.354;4.992;2023-07-02T10:01:58;23.80;38.90
68217;DHT22;55037;52.354;4.992;2023-07-02T10:04:25;24.00;39.10
68217;DHT22;55037;52.354;4.992;2023-07-02T10:06:55;24.00;38.70
68217;DHT22;55037;52.354;4.992;2023-07-02T10:09:40;24.40;38.20
68217;DHT22;55037;52.354;4.992;2023-07-02T10:14:48;24.70;35.90
68217;DHT22;55037;52.354;4.992;2023-07-02T10:17:30;25.50;34.90
68217;DHT22;55037;52.354;4.992;2023-07-02T10:20:04;26.40;34.80
68217;DHT22;55037;52.354;4.992;2023-07-02T10:22:49;28.20;32.70
68217;DHT22;55037;52.354;4.992;2023-07-02T10:25:27;29.60;29.50
68217;DHT22;55037;52.354;4.992;2023-07-02T10:27:55;30.10;27.60
68217;DHT22;55037;52.354;4.992;2023-07-02T10:30:38;31.20;25.30
68217;DHT22;55037;52.354;4.992;2023-07-02T10:33:10;31.20;25.90
68217;DHT22;55037;52.354;4.992;2023-07-02T10:35:39;31.70;25.20
68217;DHT22;55037;52.354;4.992;2023-07-02T10:38:18;31.10;24.80
68217;DHT22;55037;52.354;4.992;2023-07-02T10:40:46;31.20;25.20
68217;DHT22;55037;52.354;4.992;2023-07-02T10:43:23;32.10;24.30
68217;DHT22;55037;52.354;4.992;2023-07-02T10:45:53;31.70;24.50
68217;DHT22;55037;52.354;4.992;2023-07-02T10:48:22;31.20;24.40
68217;DHT22;55037;52.354;4.992;2023-07-02T10:50:50;29.60;25.40
68217;DHT22;55037;52.354;4.992;2023-07-02T10:53:20;29.30;28.40
68217;DHT22;55037;52.354;4.992;2023-07-02T10:55:56;30.30;26.60
68217;DHT22;55037;52.354;4.992;2023-07-02T10:58:25;31.40;25.00
68217;DHT22;55037;52.354;4.992;2023-07-02T11:00:53;32.60;24.10
68217;DHT22;55037;52.354;4.992;2023-07-02T11:03:25;32.90;22.60
68217;DHT22;55037;52.354;4.992;2023-07-02T11:05:56;32.70;22.80
68217;DHT22;55037;52.354;4.992;2023-07-02T11:08:34;32.00;23.40
68217;DHT22;55037;52.354;4.992;2023-07-02T11:11:08;31.10;23.40
68217;DHT22;55037;52.354;4.992;2023-07-02T11:13:44;29.50;24.50
68217;DHT22;55037;52.354;4.992;2023-07-02T11:16:27;28.00;27.00
68217;DHT22;55037;52.354;4.992;2023-07-02T11:19:09;29.20;26.40
68217;DHT22;55037;52.354;4.992;2023-07-02T11:21:37;30.30;25.00
68217;DHT22;55037;52.354;4.992;2023-07-02T11:24:06;31.70;23.50
68217;DHT22;55037;52.354;4.992;2023-07-02T11:26:39;32.50;21.80
68217;DHT22;55037;52.354;4.992;2023-07-02T11:29:11;31.60;21.80
68217;DHT22;55037;52.354;4.992;2023-07-02T11:31:39;29.80;23.90
68217;DHT22;55037;52.354;4.992;2023-07-02T11:34:16;29.70;23.60
68217;DHT22;55037;52.354;4.992;2023-07-02T11:36:46;30.40;24.20
68217;DHT22;55037;52.354;4.992;2023-07-02T11:39:14;30.50;22.70
68217;DHT22;55037;52.354;4.992;2023-07-02T11:41:45;28.90;24.00
68217;DHT22;55037;52.354;4.992;2023-07-02T11:44:16;28.80;24.90
68217;DHT22;55037;52.354;4.992;2023-07-02T11:46:45;28.60;24.90
68217;DHT22;55037;52.354;4.992;2023-07-02T11:49:14;27.80;25.00
68217;DHT22;55037;52.354;4.992;2023-07-02T11:51:42;26.70;26.20
68217;DHT22;55037;52.354;4.992;2023-07-02T11:54:17;25.90;27.30
68217;DHT22;55037;52.354;4.992;2023-07-02T11:56:46;26.30;27.20
68217;DHT22;55037;52.354;4.992;2023-07-02T11:59:14;28.30;26.50
68217;DHT22;55037;52.354;4.992;2023-07-02T12:01:41;28.90;24.70
68217;DHT22;55037;52.354;4.992;2023-07-02T12:04:10;29.70;24.10
68217;DHT22;55037;52.354;4.992;2023-07-02T12:06:39;29.40;23.30
68217;DHT22;55037;52.354;4.992;2023-07-02T12:09:07;28.70;23.70
68217;DHT22;55037;52.354;4.992;2023-07-02T12:11:34;27.90;24.90
68217;DHT22;55037;52.354;4.992;2023-07-02T12:14:02;27.20;25.60
68217;DHT22;55037;52.354;4.992;2023-07-02T12:16:30;26.50;26.40
68217;DHT22;55037;52.354;4.992;2023-07-02T12:18:57;26.80;27.30
68217;DHT22;55037;52.354;4.992;2023-07-02T12:21:25;27.30;25.70
68217;DHT22;55037;52.354;4.992;2023-07-02T12:23:52;26.70;25.60
68217;DHT22;55037;52.354;4.992;2023-07-02T12:26:20;26.90;25.30
68217;DHT22;55037;52.354;4.992;2023-07-02T12:28:48;26.30;25.70
68217;DHT22;55037;52.354;4.992;2023-07-02T12:31:16;26.30;26.70
68217;DHT22;55037;52.354;4.992;2023-07-02T12:33:44;26.30;25.50
68217;DHT22;55037;52.354;4.992;2023-07-02T12:36:12;25.50;26.50
68217;DHT22;55037;52.354;4.992;2023-07-02T12:38:41;24.80;27.30
68217;DHT22;55037;52.354;4.992;2023-07-02T12:41:09;25.50;28.70
68217;DHT22;55037;52.354;4.992;2023-07-02T12:43:36;26.90;26.00
68217;DHT22;55037;52.354;4.992;2023-07-02T12:46:05;26.30;25.90
68217;DHT22;55037;52.354;4.992;2023-07-02T12:48:33;26.70;27.00
68217;DHT22;55037;52.354;4.992;2023-07-02T12:51:00;28.20;26.00
68217;DHT22;55037;52.354;4.992;2023-07-02T12:53:28;29.10;24.30
68217;DHT22;55037;52.354;4.992;2023-07-02T12:55:56;28.00;24.90
68217;DHT22;55037;52.354;4.992;2023-07-02T12:58:24;27.40;26.20
68217;DHT22;55037;52.354;4.992;2023-07-02T13:00:51;28.30;26.40
68217;DHT22;55037;52.354;4.992;2023-07-02T13:03:19;28.70;25.10
68217;DHT22;55037;52.354;4.992;2023-07-02T13:05:48;27.70;25.80
68217;DHT22;55037;52.354;4.992;2023-07-02T13:08:16;27.30;25.90
68217;DHT22;55037;52.354;4.992;2023-07-02T13:10:44;26.40;26.90
68217;DHT22;55037;52.354;4.992;2023-07-02T13:13:12;26.40;28.20
68217;DHT22;55037;52.354;4.992;2023-07-02T13:15:50;26.50;26.40
68217;DHT22;55037;52.354;4.992;2023-07-02T13:18:18;25.50;26.90
68217;DHT22;55037;52.354;4.992;2023-07-02T13:20:46;24.70;28.50
68217;DHT22;55037;52.354;4.992;2023-07-02T13:23:14;25.50;29.40
68217;DHT22;55037;52.354;4.992;2023-07-02T13:25:41;26.90;28.40
68217;DHT22;55037;52.354;4.992;2023-07-02T13:28:09;26.60;25.80
68217;DHT22;55037;52.354;4.992;2023-07-02T13:30:37;26.40;27.40
68217;DHT22;55037;52.354;4.992;2023-07-02T13:33:05;27.10;26.70
68217;DHT22;55037;52.354;4.992;2023-07-02T13:35:33;26.70;26.70
68217;DHT22;55037;52.354;4.992;2023-07-02T13:38:00;26.20;28.10
68217;DHT22;55037;52.354;4.992;2023-07-02T13:40:30;27.20;27.70
68217;DHT22;55037;52.354;4.992;2023-07-02T13:42:58;27.40;26.20
68217;DHT22;55037;52.354;4.992;2023-07-02T13:45:25;27.10;27.30
68217;DHT22;55037;52.354;4.992;2023-07-02T13:47:53;27.40;26.90
68217;DHT22;55037;52.354;4.992;2023-07-02T13:50:20;27.70;26.50
68217;DHT22;55037;52.354;4.992;2023-07-02T13:52:48;27.40;26.40
68217;DHT22;55037;52.354;4.992;2023-07-02T13:55:17;26.50;26.70
68217;DHT22;55037;52.354;4.992;2023-07-02T13:57:44;26.20;27.80
68217;DHT22;55037;52.354;4.992;2023-07-02T14:00:12;25.90;28.00
68217;DHT22;55037;52.354;4.992;2023-07-02T14:02:39;25.70;28.90
68217;DHT22;55037;52.354;4.992;2023-07-02T14:05:08;25.70;28.30
68217;DHT22;55037;52.354;4.992;2023-07-02T14:07:35;25.30;27.50
68217;DHT22;55037;52.354;4.992;2023-07-02T14:10:03;25.40;27.40
68217;DHT22;55037;52.354;4.992;2023-07-02T14:12:31;25.40;26.70
68217;DHT22;55037;52.354;4.992;2023-07-02T14:14:59;25.10;27.00
68217;DHT22;55037;52.354;4.992;2023-07-02T14:17:27;25.20;27.20
68217;DHT22;55037;52.354;4.992;2023-07-02T14:19:54;25.50;27.20
68217;DHT22;55037;52.354;4.992;2023-07-02T14:22:22;25.30;27.30
68217;DHT22;55037;52.354;4.992;2023-07-02T14:24:49;25.50;27.70
68217;DHT22;55037;52.354;4.992;2023-07-02T14:27:17;25.30;27.10
68217;DHT22;55037;52.354;4.992;2023-07-02T14:29:45;25.00;27.70
68217;DHT22;55037;52.354;4.992;2023-07-02T14:32:15;25.30;27.40
68217;DHT22;55037;52.354;4.992;2023-07-02T14:34:43;24.90;27.40
68217;DHT22;55037;52.354;4.992;2023-07-02T14:37:10;24.70;28.70
68217;DHT22;55037;52.354;4.992;2023-07-02T14:39:38;24.70;28.50
68217;DHT22;55037;52.354;4.992;2023-07-02T14:42:10;24.60;28.60
68217;DHT22;55037;52.354;4.992;2023-07-02T14:44:37;24.80;28.80
68217;DHT22;55037;52.354;4.992;2023-07-02T14:47:05;25.50;28.50
68217;DHT22;55037;52.354;4.992;2023-07-02T14:49:33;25.90;27.70
68217;DHT22;55037;52.354;4.992;2023-07-02T14:52:01;26.20;27.20
68217;DHT22;55037;52.354;4.992;2023-07-02T14:54:29;26.50;26.20
68217;DHT22;55037;52.354;4.992;2023-07-02T14:56:57;26.50;25.80
68217;DHT22;55037;52.354;4.992;2023-07-02T14:59:27;26.10;26.60
68217;DHT22;55037;52.354;4.992;2023-07-02T15:01:54;26.40;27.30
68217;DHT22;55037;52.354;4.992;2023-07-02T15:04:22;27.00;26.80
68217;DHT22;55037;52.354;4.992;2023-07-02T15:06:50;27.10;26.10
68217;DHT22;55037;52.354;4.992;2023-07-02T15:09:17;27.30;26.00
68217;DHT22;55037;52.354;4.992;2023-07-02T15:11:45;27.20;25.60
68217;DHT22;55037;52.354;4.992;2023-07-02T15:14:13;27.10;25.20
68217;DHT22;55037;52.354;4.992;2023-07-02T15:16:41;26.70;25.50
68217;DHT22;55037;52.354;4.992;2023-07-02T15:19:08;26.50;26.30
68217;DHT22;55037;52.354;4.992;2023-07-02T15:21:36;26.80;26.30
68217;DHT22;55037;52.354;4.992;2023-07-02T15:24:05;27.00;26.00
68217;DHT22;55037;52.354;4.992;2023-07-02T15:26:33;26.90;25.90
68217;DHT22;55037;52.354;4.992;2023-07-02T15:29:01;26.50;25.70
68217;DHT22;55037;52.354;4.992;2023-07-02T15:31:28;26.10;26.10
68217;DHT22;55037;52.354;4.992;2023-07-02T15:33:56;25.90;26.20
68217;DHT22;55037;52.354;4.992;2023-07-02T15:36:24;25.80;26.60
68217;DHT22;55037;52.354;4.992;2023-07-02T15:38:51;26.10;26.20
68217;DHT22;55037;52.354;4.992;2023-07-02T15:41:19;26.10;26.50
68217;DHT22;55037;52.354;4.992;2023-07-02T15:43:48;26.30;26.70
68217;DHT22;55037;52.354;4.992;2023-07-02T15:46:16;26.60;26.20